Stolt Shearwater — ZCRD9 — position and weather

sailwx.info

Track history (hours):
 
Tides and Currents Weather Stations Pressure Air Temp Water Temp Dewpoint Dewpoint Depression Visibility Wind Speed Wind Dir Waves Ship Positions

Stolt Shearwater

Last reported at 2014-Nov-27 16:23 UTC. Time now 2014-Nov-28 06:55 UTC.
Position N 53°17' W 002°54'.

Length 96 m; draft 5.1 m.

Type: Ship. MMSI: 319402000.

Date/timePositionNaut miles runAvg speedWind from/ knotsBaromVisibWave heightAir tempDewpointWater temp
2014-Nov-27 16:23N 53°17' W 002°54'3 3.4
2014-Nov-27 15:33N 53°19' W 002°57'3 2.6
2014-Nov-27 14:33N 53°22' W 002°58'9 8.5
2014-Nov-27 13:33N 53°29' W 003°05'9 9.2
2014-Nov-27 12:33N 53°31' W 003°21'  
2014-Nov-25 06:07N 50°32' W 005°34'  
2014-Nov-21 08:30N 38°21' W 009°50'17 8.5
2014-Nov-21 06:33N 38°05' W 009°46'9 8.5
2014-Nov-21 05:32N 37°57' W 009°44'9 8.6
2014-Nov-21 04:32N 37°48' W 009°41'9 8.7
2014-Nov-21 03:32N 37°40' W 009°38'79 7.9
2014-Nov-20 17:31N 36°34' W 008°44'164 8.6
2014-Nov-19 22:32N 36°01' W 005°25'8 8.2
2014-Nov-19 21:33N 36°03' W 005°15'223 8.8
2014-Nov-18 20:19N 37°20' W 000°54'7 9.7
2014-Nov-18 19:33N 37°25' W 000°48'11 9.9
2014-Nov-18 18:27N 37°32' W 000°37'9 9.5
2014-Nov-18 17:33N 37°38' W 000°30'11 9.5
2014-Nov-18 16:22N 37°48' W 000°22'142 9.4
2014-Nov-18 01:13N 39°42' E 001°25'6 9.4
2014-Nov-18 00:32N 39°47' E 001°30'9 8.8
2014-Nov-17 23:33N 39°54' E 001°37'9 8.8
2014-Nov-17 22:33N 40°02' E 001°44'9 8.6
2014-Nov-17 21:33N 40°08' E 001°50'9 8.7
2014-Nov-17 20:33N 40°15' E 001°57'9 8.8
2014-Nov-17 19:33N 40°22' E 002°05'9 8.5
2014-Nov-17 18:33N 40°28' E 002°12'8 8.3
2014-Nov-17 17:33N 40°35' E 002°19'8 7.8
2014-Nov-17 16:33N 40°41' E 002°25'  
Track history (hours):
 
Tides and Currents Weather Stations Pressure Air Temp Water Temp Dewpoint Dewpoint Depression Visibility Wind Speed Wind Dir Waves Ship Positions

Stolt Shearwater

Last reported at 2014-Nov-27 16:23 UTC. Time now 2014-Nov-28 06:55 UTC.
Position N 53°17' W 002°54'.

Length 96 m; draft 5.1 m.

Type: Ship. MMSI: 319402000.

Date/timePositionNaut miles runAvg speedWind from/ knotsBaromVisibWave heightAir tempDewpointWater temp
2014-Nov-27 16:23N 53°17' W 002°54'3 3.4
2014-Nov-27 15:33N 53°19' W 002°57'3 2.6
2014-Nov-27 14:33N 53°22' W 002°58'9 8.5
2014-Nov-27 13:33N 53°29' W 003°05'9 9.2
2014-Nov-27 12:33N 53°31' W 003°21'  
2014-Nov-25 06:07N 50°32' W 005°34'  
2014-Nov-21 08:30N 38°21' W 009°50'17 8.5
2014-Nov-21 06:33N 38°05' W 009°46'9 8.5
2014-Nov-21 05:32N 37°57' W 009°44'9 8.6
2014-Nov-21 04:32N 37°48' W 009°41'9 8.7
2014-Nov-21 03:32N 37°40' W 009°38'79 7.9
2014-Nov-20 17:31N 36°34' W 008°44'164 8.6
2014-Nov-19 22:32N 36°01' W 005°25'8 8.2
2014-Nov-19 21:33N 36°03' W 005°15'223 8.8
2014-Nov-18 20:19N 37°20' W 000°54'7 9.7
2014-Nov-18 19:33N 37°25' W 000°48'11 9.9
2014-Nov-18 18:27N 37°32' W 000°37'9 9.5
2014-Nov-18 17:33N 37°38' W 000°30'11 9.5
2014-Nov-18 16:22N 37°48' W 000°22'142 9.4
2014-Nov-18 01:13N 39°42' E 001°25'6 9.4
2014-Nov-18 00:32N 39°47' E 001°30'9 8.8
2014-Nov-17 23:33N 39°54' E 001°37'9 8.8
2014-Nov-17 22:33N 40°02' E 001°44'9 8.6
2014-Nov-17 21:33N 40°08' E 001°50'9 8.7
2014-Nov-17 20:33N 40°15' E 001°57'9 8.8
2014-Nov-17 19:33N 40°22' E 002°05'9 8.5
2014-Nov-17 18:33N 40°28' E 002°12'8 8.3
2014-Nov-17 17:33N 40°35' E 002°19'8 7.8
2014-Nov-17 16:33N 40°41' E 002°25'  

Dump ship's entire track history